createdAt,value
2023-01-20T00:01:18.112Z,13.23
2023-01-20T00:03:48.126Z,16.05
2023-01-20T00:06:16.556Z,14.65
2023-01-20T00:08:44.883Z,13.35
2023-01-20T00:11:36.040Z,11.68
2023-01-20T00:14:04.641Z,10.13
2023-01-20T00:16:37.337Z,15.45
2023-01-20T00:19:05.577Z,16.48
2023-01-20T00:21:35.054Z,14.20
2023-01-20T00:24:03.327Z,13.27
2023-01-20T00:26:31.475Z,19.88
2023-01-20T00:28:59.772Z,14.85
2023-01-20T00:31:29.467Z,15.70
2023-01-20T00:34:00.843Z,11.98
2023-01-20T00:36:31.257Z,16.25
2023-01-20T00:39:03.191Z,13.10
2023-01-20T00:41:31.722Z,15.13
2023-01-20T00:44:00.067Z,14.65
2023-01-20T00:46:28.443Z,13.70
2023-01-20T00:48:58.022Z,10.45
2023-01-20T00:51:26.170Z,11.13
2023-01-20T00:53:54.422Z,11.48
2023-01-20T00:56:25.125Z,17.30
2023-01-20T00:58:55.177Z,12.23
2023-01-20T01:01:23.549Z,12.43
2023-01-20T01:03:54.648Z,11.10
2023-01-20T01:06:24.431Z,12.10
2023-01-20T01:08:53.166Z,10.40
2023-01-20T01:11:21.335Z,12.25
2023-01-20T01:13:52.495Z,11.73
2023-01-20T01:16:22.956Z,7.85
2023-01-20T01:18:53.660Z,11.02
2023-01-20T01:21:24.169Z,10.23
2023-01-20T01:23:53.813Z,10.48
2023-01-20T01:26:24.701Z,10.07
2023-01-20T01:28:55.136Z,12.98
2023-01-20T01:31:23.368Z,9.35
2023-01-20T01:33:51.613Z,7.88
2023-01-20T01:36:19.921Z,8.63
2023-01-20T01:38:58.451Z,13.55
2023-01-20T01:41:27.577Z,11.75
2023-01-20T01:44:07.342Z,11.98
2023-01-20T01:46:35.912Z,13.93
2023-01-20T01:49:08.392Z,11.45
2023-01-20T01:51:40.245Z,10.20
2023-01-20T01:54:13.156Z,13.63
2023-01-20T01:56:45.579Z,8.68
2023-01-20T01:59:15.069Z,8.25
2023-01-20T02:01:47.901Z,8.23
2023-01-20T02:04:17.652Z,5.55
2023-01-20T02:06:48.611Z,7.95
2023-01-20T02:09:18.575Z,10.07
2023-01-20T02:11:49.623Z,9.90
2023-01-20T02:14:23.558Z,9.70
2023-01-20T02:17:00.283Z,11.30
2023-01-20T02:19:55.969Z,13.10
2023-01-20T02:22:35.166Z,8.88
2023-01-20T02:25:30.626Z,18.85
2023-01-20T02:28:22.121Z,9.90
2023-01-20T02:31:22.617Z,10.02
2023-01-20T02:33:57.750Z,9.25
2023-01-20T02:36:31.262Z,8.20
2023-01-20T02:39:04.157Z,9.18
2023-01-20T02:41:39.924Z,5.90
2023-01-20T02:44:17.574Z,9.65
2023-01-20T02:47:05.172Z,8.38
2023-01-20T02:49:37.865Z,7.88
2023-01-20T02:52:10.827Z,9.00
2023-01-20T02:54:43.160Z,8.23
2023-01-20T02:57:15.325Z,11.88
2023-01-20T02:59:47.058Z,10.32
2023-01-20T03:02:18.735Z,9.18
2023-01-20T03:04:52.576Z,14.15
2023-01-20T03:07:22.534Z,14.50
2023-01-20T03:09:55.229Z,11.48
2023-01-20T03:12:26.842Z,9.50
2023-01-20T03:14:55.457Z,16.58
2023-01-20T03:17:24.096Z,7.13
2023-01-20T03:19:53.848Z,9.02
2023-01-20T03:22:22.015Z,9.98
2023-01-20T03:24:50.787Z,14.85
2023-01-20T03:27:19.035Z,10.85
2023-01-20T03:29:47.189Z,10.05
2023-01-20T03:32:16.254Z,14.23
2023-01-20T03:34:47.093Z,18.65
2023-01-20T03:37:16.827Z,9.00
2023-01-20T03:39:45.093Z,11.95
2023-01-20T03:42:20.982Z,19.95
2023-01-20T03:45:01.660Z,11.15
2023-01-20T03:47:47.778Z,7.78
2023-01-20T03:50:28.547Z,16.50
2023-01-20T03:53:02.791Z,13.13
2023-01-20T03:55:39.453Z,19.95
2023-01-20T03:58:12.027Z,13.05
2023-01-20T04:00:43.205Z,13.02
2023-01-20T04:03:17.701Z,16.05
2023-01-20T04:05:48.066Z,16.30
2023-01-20T04:08:19.995Z,13.20
2023-01-20T04:10:50.228Z,17.95
2023-01-20T04:13:21.626Z,10.20
2023-01-20T04:15:49.874Z,10.65
2023-01-20T04:18:22.940Z,8.68
2023-01-20T04:20:54.647Z,8.43
2023-01-20T04:23:27.731Z,12.23
2023-01-20T04:25:55.994Z,9.15
2023-01-20T04:28:24.201Z,10.00
2023-01-20T04:30:52.617Z,6.95
2023-01-20T04:33:20.969Z,11.60
2023-01-20T04:35:49.134Z,13.80
2023-01-20T04:38:17.388Z,11.57
2023-01-20T04:40:46.892Z,10.07
2023-01-20T04:43:18.484Z,10.52
2023-01-20T04:45:46.654Z,8.60
2023-01-20T04:48:14.943Z,19.27
2023-01-20T04:50:43.560Z,12.88
2023-01-20T04:53:19.121Z,10.82
2023-01-20T04:55:48.761Z,10.20
2023-01-20T04:58:17.001Z,12.77
2023-01-20T05:00:45.246Z,8.15
2023-01-20T05:03:13.390Z,7.82
2023-01-20T05:05:41.556Z,8.88
2023-01-20T05:08:09.707Z,10.85
2023-01-20T05:10:37.967Z,9.02
2023-01-20T05:13:07.475Z,12.02
2023-01-20T05:15:35.817Z,10.05
2023-01-20T05:18:04.025Z,10.80
2023-01-20T05:20:32.359Z,11.43
2023-01-20T05:23:01.442Z,12.32
2023-01-20T05:25:29.838Z,13.85
2023-01-20T05:27:59.248Z,9.73
2023-01-20T05:30:31.988Z,11.00
2023-01-20T05:33:00.239Z,12.40
2023-01-20T05:35:28.659Z,10.90
2023-01-20T05:37:56.845Z,10.30
2023-01-20T05:40:25.057Z,11.48
2023-01-20T05:42:53.296Z,9.25
2023-01-20T05:45:21.506Z,10.40
2023-01-20T05:47:56.302Z,9.50
2023-01-20T05:50:24.717Z,10.85
2023-01-20T05:52:53.120Z,11.65
2023-01-20T05:55:21.819Z,9.00
2023-01-20T05:57:50.092Z,12.52
2023-01-20T06:00:19.832Z,10.10
2023-01-20T06:02:48.053Z,11.82
2023-01-20T06:05:18.200Z,13.48
2023-01-20T06:07:46.423Z,10.40
2023-01-20T06:10:17.449Z,10.25
2023-01-20T06:12:45.657Z,11.25
2023-01-20T06:15:14.187Z,7.80
2023-01-20T06:17:42.668Z,9.18
2023-01-20T06:20:12.243Z,9.57
2023-01-20T06:22:41.847Z,10.07
2023-01-20T06:25:10.676Z,7.70
2023-01-20T06:27:38.841Z,9.27
2023-01-20T06:30:08.744Z,11.35
2023-01-20T06:32:36.949Z,10.90
2023-01-20T06:35:05.379Z,11.23
2023-01-20T06:37:33.608Z,13.60
2023-01-20T06:40:03.189Z,8.75
2023-01-20T06:42:32.578Z,7.80
2023-01-20T06:45:00.815Z,8.45
2023-01-20T06:47:29.221Z,7.95
2023-01-20T06:49:57.372Z,10.45
2023-01-20T06:52:25.671Z,13.35
2023-01-20T06:54:53.801Z,9.40
2023-01-20T06:57:23.432Z,8.90
2023-01-20T06:59:51.660Z,8.50
2023-01-20T07:02:19.852Z,10.90
2023-01-20T07:04:48.031Z,8.95
2023-01-20T07:07:16.233Z,12.95
2023-01-20T07:09:44.470Z,11.02
2023-01-20T07:12:14.957Z,7.50
2023-01-20T07:14:44.492Z,7.60
2023-01-20T07:17:13.695Z,9.27
2023-01-20T07:19:41.987Z,10.35
2023-01-20T07:22:10.323Z,11.80
2023-01-20T07:24:38.564Z,12.88
2023-01-20T07:27:06.823Z,18.15
2023-01-20T07:29:35.070Z,13.80
2023-01-20T07:32:04.745Z,9.90
2023-01-20T07:34:32.934Z,13.55
2023-01-20T07:37:02.470Z,12.45
2023-01-20T07:39:30.725Z,11.23
2023-01-20T07:41:58.927Z,9.70
2023-01-20T07:44:27.134Z,8.93
2023-01-20T07:46:55.366Z,5.80
2023-01-20T07:49:24.882Z,8.80
2023-01-20T07:51:55.588Z,9.32
2023-01-20T07:54:23.828Z,12.32
2023-01-20T07:56:52.028Z,9.65
2023-01-20T07:59:20.195Z,10.88
2023-01-20T08:01:48.452Z,10.98
2023-01-20T08:04:19.167Z,6.03
2023-01-20T08:06:48.747Z,11.18
2023-01-20T08:09:19.302Z,8.52
2023-01-20T08:11:47.660Z,9.73
2023-01-20T08:14:18.332Z,9.57
2023-01-20T08:16:46.611Z,8.20
2023-01-20T08:19:14.796Z,7.95
2023-01-20T08:21:43.105Z,10.25
2023-01-20T08:24:12.672Z,8.35
2023-01-20T08:26:40.846Z,11.73
2023-01-20T08:29:10.400Z,10.43
2023-01-20T08:31:38.976Z,9.13
2023-01-20T08:34:07.237Z,9.18
2023-01-20T08:36:37.907Z,13.90
2023-01-20T08:39:08.754Z,11.45
2023-01-20T08:41:40.567Z,8.90
2023-01-20T08:44:09.875Z,10.77
2023-01-20T08:46:41.532Z,11.80
2023-01-20T08:49:10.728Z,6.97
2023-01-20T08:51:42.102Z,7.35
2023-01-20T08:54:10.473Z,10.43
2023-01-20T08:56:40.104Z,10.10
2023-01-20T08:59:08.767Z,8.85
2023-01-20T09:01:38.015Z,10.45
2023-01-20T09:04:07.681Z,8.38
2023-01-20T09:06:42.859Z,10.80
2023-01-20T09:09:11.787Z,8.27
2023-01-20T09:11:44.823Z,10.13
2023-01-20T09:14:13.301Z,8.77
2023-01-20T09:16:41.507Z,9.90
2023-01-20T09:19:09.695Z,13.10
2023-01-20T09:21:39.215Z,10.45
2023-01-20T09:24:08.296Z,9.88
2023-01-20T09:26:39.533Z,9.82
2023-01-20T09:29:12.484Z,7.50
2023-01-20T09:31:44.415Z,9.55
2023-01-20T09:34:15.387Z,8.90
2023-01-20T09:36:43.674Z,8.40
2023-01-20T09:39:32.208Z,9.02
2023-01-20T09:42:35.024Z,10.73
2023-01-20T09:45:22.803Z,9.77
2023-01-20T09:47:51.694Z,10.00
2023-01-20T09:50:53.433Z,10.45
2023-01-20T09:53:35.682Z,11.02
2023-01-20T09:56:09.017Z,11.15
2023-01-20T09:58:42.669Z,10.88
2023-01-20T10:01:19.165Z,9.00
2023-01-20T10:03:55.345Z,9.77
2023-01-20T10:06:27.691Z,11.98
2023-01-20T10:09:05.881Z,11.13
2023-01-20T10:11:39.113Z,12.07
2023-01-20T10:14:13.845Z,10.02
2023-01-20T10:16:49.656Z,10.20
2023-01-20T10:19:27.307Z,6.90
2023-01-20T10:22:02.758Z,7.90
2023-01-20T10:24:37.717Z,11.57
2023-01-20T10:27:06.559Z,11.48
2023-01-20T10:29:38.348Z,8.70
2023-01-20T10:32:16.768Z,7.50
2023-01-20T10:34:48.751Z,8.00
2023-01-20T10:37:17.182Z,9.43
2023-01-20T10:39:52.587Z,10.85
2023-01-20T10:42:21.256Z,8.57
2023-01-20T10:44:51.506Z,10.05
2023-01-20T10:47:27.452Z,10.20
2023-01-20T10:50:34.550Z,7.25
2023-01-20T10:53:34.081Z,7.45
2023-01-20T10:56:29.218Z,14.90
2023-01-20T10:58:57.896Z,10.57
2023-01-20T11:01:26.722Z,7.70
2023-01-20T11:03:56.348Z,9.10
2023-01-20T11:06:26.874Z,11.10
2023-01-20T11:08:55.620Z,11.10
2023-01-20T11:11:26.250Z,9.23
2023-01-20T11:13:55.235Z,11.45
2023-01-20T11:16:26.480Z,10.60
2023-01-20T11:19:01.832Z,11.30
2023-01-20T11:21:33.495Z,9.10
2023-01-20T11:24:02.193Z,8.20
2023-01-20T11:26:33.177Z,9.18
2023-01-20T11:29:03.618Z,8.77
2023-01-20T11:31:40.773Z,6.82
2023-01-20T11:34:29.329Z,11.20
2023-01-20T11:37:17.328Z,6.93
2023-01-20T11:39:57.228Z,5.80
2023-01-20T11:42:27.569Z,7.15
2023-01-20T11:45:01.052Z,7.57
2023-01-20T11:47:36.589Z,6.32
2023-01-20T11:50:31.459Z,8.18
2023-01-20T11:53:17.787Z,4.63
2023-01-20T11:55:51.334Z,8.18
2023-01-20T11:58:22.096Z,6.53
2023-01-20T12:00:52.492Z,7.43
2023-01-20T12:03:49.122Z,6.93
2023-01-20T12:06:24.362Z,7.65
2023-01-20T12:08:56.446Z,7.15
2023-01-20T12:11:28.770Z,10.18
2023-01-20T12:14:23.365Z,10.13
2023-01-20T12:17:14.437Z,7.80
2023-01-20T12:19:56.853Z,8.43
2023-01-20T12:22:38.772Z,7.20
2023-01-20T12:25:18.043Z,6.75
2023-01-20T12:27:50.624Z,7.25
2023-01-20T12:30:48.869Z,7.45
2023-01-20T12:33:25.983Z,7.72
2023-01-20T12:36:25.081Z,9.73
2023-01-20T12:39:16.402Z,8.73
2023-01-20T12:42:20.663Z,4.85
2023-01-20T12:44:51.758Z,9.43
2023-01-20T12:47:36.076Z,9.75
2023-01-20T12:50:28.301Z,6.75
2023-01-20T12:53:11.786Z,4.63
2023-01-20T12:55:56.995Z,9.20
2023-01-20T12:58:39.947Z,4.80
2023-01-20T13:01:38.673Z,4.22
2023-01-20T13:04:37.358Z,6.85
2023-01-20T13:07:19.433Z,5.88
2023-01-20T13:10:03.162Z,5.70
2023-01-20T13:12:42.431Z,10.30
2023-01-20T13:15:22.380Z,5.20
2023-01-20T13:18:13.189Z,4.20
2023-01-20T13:20:45.565Z,6.47
2023-01-20T13:23:17.210Z,8.75
2023-01-20T13:25:47.608Z,7.30
2023-01-20T13:28:20.225Z,4.60
2023-01-20T13:30:51.562Z,4.95
2023-01-20T13:33:32.518Z,4.57
2023-01-20T13:36:01.724Z,4.80
2023-01-20T13:38:35.965Z,6.07
2023-01-20T13:41:07.048Z,5.25
2023-01-20T13:43:50.461Z,6.18
2023-01-20T13:46:47.687Z,5.28
2023-01-20T13:49:25.882Z,7.90
2023-01-20T13:51:54.201Z,8.80
2023-01-20T13:54:48.472Z,9.00
2023-01-20T13:57:46.179Z,7.20
2023-01-20T14:00:20.474Z,5.63
2023-01-20T14:02:50.400Z,7.55
2023-01-20T14:05:28.014Z,5.95
2023-01-20T14:07:59.083Z,8.70
2023-01-20T14:10:27.894Z,6.35
2023-01-20T14:12:56.184Z,9.85
2023-01-20T14:15:33.322Z,5.07
2023-01-20T14:18:02.183Z,8.95
2023-01-20T14:20:31.196Z,6.57
2023-01-20T14:23:27.692Z,4.53
2023-01-20T14:26:05.035Z,4.75
2023-01-20T14:28:35.543Z,4.40
2023-01-20T14:31:36.444Z,5.50
2023-01-20T14:34:23.081Z,5.28
2023-01-20T14:36:52.969Z,4.40
2023-01-20T14:39:26.437Z,5.45
2023-01-20T14:41:56.374Z,5.68
2023-01-20T14:44:26.580Z,8.60
2023-01-20T14:46:58.799Z,5.93
2023-01-20T14:49:33.666Z,4.90
2023-01-20T14:52:02.815Z,4.55
2023-01-20T14:54:40.085Z,3.95
2023-01-20T14:57:26.617Z,5.13
2023-01-20T15:00:12.361Z,3.75
2023-01-20T15:02:44.116Z,4.30
2023-01-20T15:05:27.782Z,3.35
2023-01-20T15:08:25.436Z,5.03
2023-01-20T15:11:22.103Z,6.03
2023-01-20T15:14:11.227Z,5.60
2023-01-20T15:16:51.030Z,6.50
2023-01-20T15:19:38.870Z,5.97
2023-01-20T15:22:24.698Z,5.65
2023-01-20T15:24:53.705Z,6.88
2023-01-20T15:27:28.249Z,5.85
2023-01-20T15:30:02.208Z,7.30
2023-01-20T15:32:30.484Z,6.95
2023-01-20T15:35:00.008Z,7.78
2023-01-20T15:37:28.265Z,10.30
2023-01-20T15:39:56.452Z,7.35
2023-01-20T15:42:24.623Z,8.68
2023-01-20T15:44:52.804Z,6.85
2023-01-20T15:47:26.064Z,7.55
2023-01-20T15:49:54.293Z,6.07
2023-01-20T15:52:23.898Z,6.60
2023-01-20T15:54:52.182Z,9.68
2023-01-20T15:57:20.644Z,6.60
2023-01-20T15:59:50.200Z,6.22
2023-01-20T16:02:19.877Z,8.27
2023-01-20T16:04:48.533Z,7.63
2023-01-20T16:07:19.517Z,8.60
2023-01-20T16:09:49.292Z,6.05
2023-01-20T16:12:19.247Z,6.90
2023-01-20T16:14:47.471Z,6.45
2023-01-20T16:17:17.439Z,7.05
2023-01-20T16:19:46.057Z,8.23
2023-01-20T16:22:17.345Z,7.47
2023-01-20T16:24:45.703Z,8.15
2023-01-20T16:27:19.800Z,8.68
2023-01-20T16:29:48.301Z,5.85
2023-01-20T16:32:18.764Z,7.93
2023-01-20T16:34:50.222Z,7.82
2023-01-20T16:37:18.398Z,6.78
2023-01-20T16:39:46.722Z,5.85
2023-01-20T16:42:18.556Z,4.45
2023-01-20T16:44:46.859Z,6.30
2023-01-20T16:47:15.041Z,6.15
2023-01-20T16:49:43.250Z,5.85
2023-01-20T16:52:12.047Z,5.03
2023-01-20T16:54:40.314Z,8.32
2023-01-20T16:57:09.428Z,5.78
2023-01-20T16:59:39.042Z,6.18
2023-01-20T17:02:07.408Z,5.72
2023-01-20T17:04:35.927Z,6.47
2023-01-20T17:07:04.084Z,5.47
2023-01-20T17:09:32.275Z,7.10
2023-01-20T17:12:00.466Z,7.43
2023-01-20T17:14:28.694Z,8.50
2023-01-20T17:16:59.514Z,8.70
2023-01-20T17:19:27.876Z,8.20
2023-01-20T17:21:58.402Z,8.52
2023-01-20T17:24:26.578Z,7.68
2023-01-20T17:26:54.724Z,4.53
2023-01-20T17:29:23.063Z,5.25
2023-01-20T17:31:51.251Z,6.43
2023-01-20T17:34:20.784Z,7.85
2023-01-20T17:36:49.556Z,4.78
2023-01-20T17:39:17.828Z,5.32
2023-01-20T17:41:46.036Z,4.32
2023-01-20T17:44:14.684Z,4.28
2023-01-20T17:46:43.032Z,4.80
2023-01-20T17:49:11.199Z,4.85
2023-01-20T17:51:40.765Z,3.50
2023-01-20T17:54:11.349Z,6.13
2023-01-20T17:56:42.130Z,4.35
2023-01-20T17:59:10.467Z,5.57
2023-01-20T18:01:38.697Z,3.42
2023-01-20T18:04:10.330Z,5.57
2023-01-20T18:06:40.250Z,4.50
2023-01-20T18:09:08.937Z,2.90
2023-01-20T18:11:38.257Z,4.18
2023-01-20T18:14:07.058Z,5.68
2023-01-20T18:16:37.997Z,4.10
2023-01-20T18:19:06.435Z,5.03
2023-01-20T18:21:36.609Z,6.25
2023-01-20T18:24:08.334Z,3.60
2023-01-20T18:26:38.833Z,3.75
2023-01-20T18:29:09.350Z,5.07
2023-01-20T18:31:37.673Z,9.52
2023-01-20T18:34:07.883Z,6.03
2023-01-20T18:36:40.482Z,5.03
2023-01-20T18:39:17.437Z,4.70
2023-01-20T18:41:46.043Z,4.88
2023-01-20T18:44:17.473Z,4.57
2023-01-20T18:46:46.452Z,5.85
2023-01-20T18:49:15.214Z,5.50
2023-01-20T18:51:57.627Z,3.63
2023-01-20T18:54:30.127Z,4.47
2023-01-20T18:56:58.482Z,4.15
2023-01-20T18:59:26.830Z,4.90
2023-01-20T19:01:56.422Z,6.43
2023-01-20T19:04:24.611Z,4.63
2023-01-20T19:06:53.159Z,4.75
2023-01-20T19:09:21.351Z,8.00
2023-01-20T19:11:50.877Z,5.03
2023-01-20T19:14:19.133Z,6.35
2023-01-20T19:16:49.395Z,5.38
2023-01-20T19:19:20.631Z,3.97
2023-01-20T19:21:51.786Z,4.80
2023-01-20T19:24:21.619Z,4.60
2023-01-20T19:26:54.189Z,6.45
2023-01-20T19:29:28.334Z,4.03
2023-01-20T19:31:57.801Z,4.22
2023-01-20T19:34:27.138Z,3.63
2023-01-20T19:36:55.440Z,4.53
2023-01-20T19:39:23.759Z,5.75
2023-01-20T19:41:55.826Z,3.80
2023-01-20T19:44:24.650Z,4.38
2023-01-20T19:46:52.863Z,4.15
2023-01-20T19:49:22.407Z,3.85
2023-01-20T19:51:53.591Z,3.10
2023-01-20T19:54:24.295Z,3.65
2023-01-20T19:56:52.467Z,4.85
2023-01-20T19:59:22.419Z,3.38
2023-01-20T20:01:50.641Z,4.75
2023-01-20T20:04:20.605Z,5.07
2023-01-20T20:06:49.055Z,4.82
2023-01-20T20:09:20.133Z,4.18
2023-01-20T20:11:49.270Z,4.70
2023-01-20T20:14:18.999Z,4.90
2023-01-20T20:16:49.897Z,7.50
2023-01-20T20:19:19.617Z,4.70
2023-01-20T20:21:48.020Z,5.47
2023-01-20T20:24:19.517Z,4.65
2023-01-20T20:26:50.243Z,4.53
2023-01-20T20:29:20.221Z,6.45
2023-01-20T20:31:50.036Z,6.03
2023-01-20T20:34:19.785Z,3.60
2023-01-20T20:36:48.501Z,8.02
2023-01-20T20:39:18.922Z,6.20
2023-01-20T20:41:49.673Z,7.32
2023-01-20T20:44:18.068Z,5.53
2023-01-20T20:46:46.319Z,6.78
2023-01-20T20:49:16.996Z,6.50
2023-01-20T20:51:47.701Z,3.60
2023-01-20T20:54:17.164Z,3.63
2023-01-20T20:56:48.652Z,6.65
2023-01-20T20:59:23.003Z,5.53
2023-01-20T21:01:51.801Z,3.95
2023-01-20T21:04:21.398Z,2.97
2023-01-20T21:06:49.665Z,5.75
2023-01-20T21:09:18.055Z,5.63
2023-01-20T21:11:46.303Z,9.43
2023-01-20T21:14:14.509Z,4.90
2023-01-20T21:16:42.740Z,6.00
2023-01-20T21:19:11.040Z,4.90
2023-01-20T21:21:40.919Z,5.65
2023-01-20T21:24:10.918Z,3.78
2023-01-20T21:26:43.121Z,3.97
2023-01-20T21:29:12.080Z,3.22
2023-01-20T21:31:40.469Z,3.22
2023-01-20T21:34:08.706Z,4.07
2023-01-20T21:36:41.486Z,3.30
2023-01-20T21:39:16.052Z,4.10
2023-01-20T21:41:44.569Z,4.65
2023-01-20T21:44:33.069Z,3.83
2023-01-20T21:47:02.784Z,3.45
2023-01-20T21:49:50.982Z,3.67
2023-01-20T21:52:38.662Z,4.00
2023-01-20T21:55:10.410Z,3.40
2023-01-20T21:57:41.600Z,2.67
2023-01-20T22:00:15.713Z,2.75
2023-01-20T22:02:45.590Z,3.45
2023-01-20T22:05:14.417Z,3.40
2023-01-20T22:07:42.620Z,3.78
2023-01-20T22:10:15.497Z,3.95
2023-01-20T22:12:43.807Z,4.72
2023-01-20T22:15:14.738Z,4.10
2023-01-20T22:17:42.946Z,4.00
2023-01-20T22:20:12.382Z,2.80
2023-01-20T22:22:40.681Z,3.30
2023-01-20T22:25:09.477Z,2.95
2023-01-20T22:27:39.324Z,2.53
2023-01-20T22:30:11.356Z,5.03
2023-01-20T22:32:49.632Z,3.85
2023-01-20T22:35:21.010Z,3.75
2023-01-20T22:37:49.358Z,4.35
2023-01-20T22:40:19.330Z,4.28
2023-01-20T22:42:52.045Z,8.18
2023-01-20T22:45:21.927Z,5.55
2023-01-20T22:47:50.078Z,4.22
2023-01-20T22:50:21.333Z,5.07
2023-01-20T22:52:51.816Z,5.10
2023-01-20T22:55:21.153Z,2.95
2023-01-20T22:57:59.041Z,4.65
2023-01-20T23:00:33.111Z,5.22
2023-01-20T23:03:01.412Z,3.05
2023-01-20T23:05:29.664Z,4.82
2023-01-20T23:08:00.068Z,4.30
2023-01-20T23:10:48.102Z,4.40
2023-01-20T23:13:18.645Z,3.80
2023-01-20T23:15:46.830Z,4.53
2023-01-20T23:18:15.102Z,5.15
2023-01-20T23:20:45.537Z,5.50
2023-01-20T23:23:14.961Z,5.65
2023-01-20T23:25:43.274Z,7.13
2023-01-20T23:28:12.440Z,6.80
2023-01-20T23:30:45.880Z,5.00
2023-01-20T23:33:14.080Z,6.53
2023-01-20T23:35:52.281Z,7.25
2023-01-20T23:38:23.483Z,5.88
2023-01-20T23:40:53.244Z,6.60
2023-01-20T23:43:24.293Z,6.20
2023-01-20T23:46:00.197Z,7.07
2023-01-20T23:48:29.495Z,6.45
2023-01-20T23:51:00.945Z,7.07
2023-01-20T23:53:31.315Z,6.63
2023-01-20T23:56:06.828Z,7.30
2023-01-20T23:58:38.207Z,7.90
